Portada
METAR-TAF:

METAR-TAF

Aeroports :

Maradi, Níger

latitud: 13-28N, longitud: 007-05E, altitud: 372 m

Observació

L'informe es va fer fa 54 minuts, a les 14:00 UTC
Vent 2 kt del Est
Temperatura 42°C
Humitat 11%
Pressió 1007 hPa
Visibilitat: 2400 m
Pols estès

METAR: DRRM 221400Z 10002KT 2400 DU NSC 42/06 Q1007

Hora: 15:54 (14:54 UTC)


TAF: manca

Observacions i pronòstics meteorològics de més de 4000 aeroports (METAR i TAF).

Les estacions disponibles són els punts grocs i vermells al mapa.

Posi el ratolí al punt desitjat per veure el nom de l'estació.

Feu clic per veure les observacions i els pronòstics meteorològics.

Per canviar el mapa: feu clic els botons verds amb una creu de color negre per apropar; al botó verd amb un guió per allunyar la imatge; o en les fletxes verdes per a mapes adjacents.


METAR-TAF: